sensor_id;sensor_type;location;lat;lon;timestamp;pressure;altitude;pressure_sealevel;temperature;humidity
47366;BME280;33105;47.964;7.982;2023-04-05T00:02:44;97104.38;;;0.18;64.01
47366;BME280;33105;47.964;7.982;2023-04-05T00:05:46;97109.38;;;0.21;63.96
47366;BME280;33105;47.964;7.982;2023-04-05T00:08:49;97105.59;;;0.16;63.76
47366;BME280;33105;47.964;7.982;2023-04-05T00:11:51;97110.88;;;0.24;64.37
47366;BME280;33105;47.964;7.982;2023-04-05T00:14:52;97106.50;;;0.23;64.08
47366;BME280;33105;47.964;7.982;2023-04-05T00:17:53;97120.59;;;0.10;65.39
47366;BME280;33105;47.964;7.982;2023-04-05T00:20:55;97111.72;;;0.10;64.89
47366;BME280;33105;47.964;7.982;2023-04-05T00:23:56;97098.94;;;0.12;64.20
47366;BME280;33105;47.964;7.982;2023-04-05T00:26:58;97103.97;;;0.00;64.18
47366;BME280;33105;47.964;7.982;2023-04-05T00:29:59;97107.34;;;0.09;64.38
47366;BME280;33105;47.964;7.982;2023-04-05T00:33:01;97097.16;;;0.19;63.65
47366;BME280;33105;47.964;7.982;2023-04-05T00:36:09;97101.44;;;0.13;63.88
47366;BME280;33105;47.964;7.982;2023-04-05T00:39:13;97099.94;;;0.11;64.32
47366;BME280;33105;47.964;7.982;2023-04-05T00:42:14;97101.97;;;0.09;64.66
47366;BME280;33105;47.964;7.982;2023-04-05T00:45:16;97091.06;;;0.10;63.60
47366;BME280;33105;47.964;7.982;2023-04-05T00:48:18;97094.00;;;0.15;62.73
47366;BME280;33105;47.964;7.982;2023-04-05T00:51:19;97098.38;;;0.02;63.84
47366;BME280;33105;47.964;7.982;2023-04-05T00:54:21;97098.78;;;-0.02;63.44
47366;BME280;33105;47.964;7.982;2023-04-05T00:57:22;97099.97;;;-0.04;63.37
47366;BME280;33105;47.964;7.982;2023-04-05T01:00:25;97097.09;;;-0.03;63.73
47366;BME280;33105;47.964;7.982;2023-04-05T01:03:30;97096.81;;;-0.08;63.70
47366;BME280;33105;47.964;7.982;2023-04-05T01:09:56;97085.91;;;-0.06;63.41
47366;BME280;33105;47.964;7.982;2023-04-05T01:12:57;97082.84;;;-0.18;63.06
47366;BME280;33105;47.964;7.982;2023-04-05T01:15:59;97073.88;;;-0.10;62.45
47366;BME280;33105;47.964;7.982;2023-04-05T01:19:00;97073.88;;;-0.10;62.74
47366;BME280;33105;47.964;7.982;2023-04-05T01:25:48;97061.53;;;-0.05;63.68
47366;BME280;33105;47.964;7.982;2023-04-05T01:32:04;97044.41;;;-0.18;63.64
47366;BME280;33105;47.964;7.982;2023-04-05T01:35:28;97041.72;;;-0.18;62.91
47366;BME280;33105;47.964;7.982;2023-04-05T01:38:33;97037.09;;;-0.10;64.46
47366;BME280;33105;47.964;7.982;2023-04-05T01:41:39;97037.47;;;-0.13;63.28
47366;BME280;33105;47.964;7.982;2023-04-05T01:44:41;97032.75;;;-0.11;63.30
47366;BME280;33105;47.964;7.982;2023-04-05T01:47:42;97032.38;;;-0.08;62.68
47366;BME280;33105;47.964;7.982;2023-04-05T01:50:43;97030.06;;;-0.11;63.23
47366;BME280;33105;47.964;7.982;2023-04-05T01:53:44;97029.56;;;0.00;63.54
47366;BME280;33105;47.964;7.982;2023-04-05T01:56:48;97031.63;;;-0.02;63.48
47366;BME280;33105;47.964;7.982;2023-04-05T01:59:49;97012.38;;;-0.05;62.96
47366;BME280;33105;47.964;7.982;2023-04-05T02:02:50;97025.34;;;-0.09;63.41
47366;BME280;33105;47.964;7.982;2023-04-05T02:05:52;97016.81;;;-0.12;62.96
47366;BME280;33105;47.964;7.982;2023-04-05T02:08:53;97015.00;;;0.10;63.05
47366;BME280;33105;47.964;7.982;2023-04-05T02:11:54;97012.22;;;0.18;62.52
47366;BME280;33105;47.964;7.982;2023-04-05T02:14:56;97001.94;;;0.07;63.07
47366;BME280;33105;47.964;7.982;2023-04-05T02:17:59;96994.28;;;0.25;62.22
47366;BME280;33105;47.964;7.982;2023-04-05T02:21:04;96991.97;;;0.00;63.48
47366;BME280;33105;47.964;7.982;2023-04-05T02:24:06;97003.59;;;-0.14;63.67
47366;BME280;33105;47.964;7.982;2023-04-05T02:27:08;96998.50;;;-0.23;62.77
47366;BME280;33105;47.964;7.982;2023-04-05T02:30:09;96991.81;;;-0.13;62.86
47366;BME280;33105;47.964;7.982;2023-04-05T02:33:13;96999.13;;;-0.07;62.20
47366;BME280;33105;47.964;7.982;2023-04-05T02:36:14;96985.25;;;-0.10;60.26
47366;BME280;33105;47.964;7.982;2023-04-05T02:39:16;96991.72;;;-0.05;61.70
47366;BME280;33105;47.964;7.982;2023-04-05T02:42:17;96983.84;;;-0.06;61.60
47366;BME280;33105;47.964;7.982;2023-04-05T02:45:18;96993.13;;;0.13;61.82
47366;BME280;33105;47.964;7.982;2023-04-05T02:48:20;96993.44;;;0.03;63.86
47366;BME280;33105;47.964;7.982;2023-04-05T02:51:22;96994.66;;;0.00;62.76
47366;BME280;33105;47.964;7.982;2023-04-05T02:54:24;96989.41;;;-0.08;62.41
47366;BME280;33105;47.964;7.982;2023-04-05T02:57:31;96994.69;;;-0.14;62.39
47366;BME280;33105;47.964;7.982;2023-04-05T03:00:39;96992.38;;;-0.17;62.39
47366;BME280;33105;47.964;7.982;2023-04-05T03:03:43;96993.38;;;-0.04;62.49
47366;BME280;33105;47.964;7.982;2023-04-05T03:06:44;97006.47;;;-0.15;64.24
47366;BME280;33105;47.964;7.982;2023-04-05T03:09:49;96991.69;;;-0.26;62.06
47366;BME280;33105;47.964;7.982;2023-04-05T03:12:52;96994.22;;;-0.03;62.45
47366;BME280;33105;47.964;7.982;2023-04-05T03:15:57;96996.50;;;-0.36;63.90
47366;BME280;33105;47.964;7.982;2023-04-05T03:19:01;97001.06;;;-0.51;63.07
47366;BME280;33105;47.964;7.982;2023-04-05T03:22:05;96995.81;;;-0.59;64.63
47366;BME280;33105;47.964;7.982;2023-04-05T03:25:10;96996.72;;;-0.67;65.85
47366;BME280;33105;47.964;7.982;2023-04-05T03:28:17;97008.47;;;-0.83;66.01
47366;BME280;33105;47.964;7.982;2023-04-05T03:31:22;97006.53;;;-0.89;66.92
47366;BME280;33105;47.964;7.982;2023-04-05T03:34:23;96999.38;;;-0.96;66.52
47366;BME280;33105;47.964;7.982;2023-04-05T03:37:30;96995.97;;;-0.90;67.19
47366;BME280;33105;47.964;7.982;2023-04-05T03:40:37;97005.22;;;-0.93;67.68
47366;BME280;33105;47.964;7.982;2023-04-05T03:43:43;97001.31;;;-0.46;65.94
47366;BME280;33105;47.964;7.982;2023-04-05T03:46:44;96997.72;;;-0.97;67.95
47366;BME280;33105;47.964;7.982;2023-04-05T03:49:47;96992.28;;;-1.04;68.08
47366;BME280;33105;47.964;7.982;2023-04-05T03:52:48;96984.88;;;-1.17;67.37
47366;BME280;33105;47.964;7.982;2023-04-05T03:55:50;96983.50;;;-1.13;67.14
47366;BME280;33105;47.964;7.982;2023-04-05T03:58:56;96983.50;;;-1.13;67.60
47366;BME280;33105;47.964;7.982;2023-04-05T04:02:01;96983.94;;;-1.09;68.26
47366;BME280;33105;47.964;7.982;2023-04-05T04:05:03;96984.59;;;-1.07;68.02
47366;BME280;33105;47.964;7.982;2023-04-05T04:08:05;96990.41;;;-1.18;67.67
47366;BME280;33105;47.964;7.982;2023-04-05T04:11:06;96988.66;;;-1.11;68.11
47366;BME280;33105;47.964;7.982;2023-04-05T04:14:11;96986.28;;;-1.06;67.25
47366;BME280;33105;47.964;7.982;2023-04-05T04:17:35;96988.66;;;-0.96;67.71
47366;BME280;33105;47.964;7.982;2023-04-05T04:20:55;96990.69;;;-1.13;66.18
47366;BME280;33105;47.964;7.982;2023-04-05T04:24:29;96991.63;;;-1.06;65.66
47366;BME280;33105;47.964;7.982;2023-04-05T04:27:48;97001.25;;;-1.12;65.33
47366;BME280;33105;47.964;7.982;2023-04-05T04:31:11;96986.00;;;-1.11;65.62
47366;BME280;33105;47.964;7.982;2023-04-05T04:34:33;96993.31;;;-1.05;65.71
47366;BME280;33105;47.964;7.982;2023-04-05T04:38:02;96991.06;;;-1.16;65.84
47366;BME280;33105;47.964;7.982;2023-04-05T04:41:35;96985.97;;;-1.26;66.20
47366;BME280;33105;47.964;7.982;2023-04-05T04:44:55;96986.81;;;-1.25;66.79
47366;BME280;33105;47.964;7.982;2023-04-05T04:48:15;96985.34;;;-1.13;66.86
47366;BME280;33105;47.964;7.982;2023-04-05T04:51:25;96989.84;;;-1.14;65.48
47366;BME280;33105;47.964;7.982;2023-04-05T04:54:26;96995.41;;;-1.15;65.26
47366;BME280;33105;47.964;7.982;2023-04-05T04:57:29;97000.84;;;-1.23;65.51
47366;BME280;33105;47.964;7.982;2023-04-05T05:00:30;96996.06;;;-1.13;66.72
47366;BME280;33105;47.964;7.982;2023-04-05T05:03:33;96984.38;;;-1.20;66.60
47366;BME280;33105;47.964;7.982;2023-04-05T05:06:35;96992.34;;;-1.27;66.13
47366;BME280;33105;47.964;7.982;2023-04-05T05:09:36;96997.44;;;-1.17;67.58
47366;BME280;33105;47.964;7.982;2023-04-05T05:12:37;97004.63;;;-1.18;65.98
47366;BME280;33105;47.964;7.982;2023-04-05T05:15:39;97007.63;;;-1.13;66.31
47366;BME280;33105;47.964;7.982;2023-04-05T05:18:43;96999.56;;;-1.27;66.33
47366;BME280;33105;47.964;7.982;2023-04-05T05:21:47;97004.34;;;-1.38;67.35
47366;BME280;33105;47.964;7.982;2023-04-05T05:24:50;97005.34;;;-1.39;67.16
47366;BME280;33105;47.964;7.982;2023-04-05T05:27:51;97004.69;;;-1.41;66.94
47366;BME280;33105;47.964;7.982;2023-04-05T05:30:52;97009.34;;;-1.34;67.26
47366;BME280;33105;47.964;7.982;2023-04-05T05:33:53;97003.72;;;-1.25;67.25
47366;BME280;33105;47.964;7.982;2023-04-05T05:36:54;97009.81;;;-1.16;67.92
47366;BME280;33105;47.964;7.982;2023-04-05T05:39:55;97011.97;;;-0.68;66.85
47366;BME280;33105;47.964;7.982;2023-04-05T05:42:57;97011.34;;;-0.55;65.93
47366;BME280;33105;47.964;7.982;2023-04-05T05:46:01;97012.91;;;-0.60;65.99
47366;BME280;33105;47.964;7.982;2023-04-05T05:49:02;97025.13;;;-1.02;67.22
47366;BME280;33105;47.964;7.982;2023-04-05T05:52:03;97026.78;;;-1.01;67.95
47366;BME280;33105;47.964;7.982;2023-04-05T05:55:05;97022.81;;;-0.76;65.68
47366;BME280;33105;47.964;7.982;2023-04-05T05:58:07;97024.28;;;-0.88;65.91
47366;BME280;33105;47.964;7.982;2023-04-05T06:01:08;97025.31;;;-0.89;65.66
47366;BME280;33105;47.964;7.982;2023-04-05T06:04:12;97021.13;;;-0.91;66.47
47366;BME280;33105;47.964;7.982;2023-04-05T06:07:13;97017.25;;;-0.89;66.71
47366;BME280;33105;47.964;7.982;2023-04-05T06:10:14;97019.94;;;-0.59;64.68
47366;BME280;33105;47.964;7.982;2023-04-05T06:13:16;97016.63;;;-0.61;64.72
47366;BME280;33105;47.964;7.982;2023-04-05T06:16:17;97026.41;;;-0.69;65.27
47366;BME280;33105;47.964;7.982;2023-04-05T06:19:18;97019.13;;;-0.75;65.93
47366;BME280;33105;47.964;7.982;2023-04-05T06:22:19;97023.84;;;-0.62;66.06
47366;BME280;33105;47.964;7.982;2023-04-05T06:25:22;97014.88;;;-0.18;64.41
47366;BME280;33105;47.964;7.982;2023-04-05T06:28:24;97021.69;;;-0.37;65.45
47366;BME280;33105;47.964;7.982;2023-04-05T06:31:26;97019.00;;;-0.37;65.47
47366;BME280;33105;47.964;7.982;2023-04-05T06:34:31;97015.38;;;0.07;63.67
47366;BME280;33105;47.964;7.982;2023-04-05T06:37:32;97012.41;;;0.38;61.42
47366;BME280;33105;47.964;7.982;2023-04-05T06:40:33;97013.88;;;0.40;61.99
47366;BME280;33105;47.964;7.982;2023-04-05T06:43:34;97011.44;;;0.24;62.83
47366;BME280;33105;47.964;7.982;2023-04-05T06:46:36;97011.31;;;0.32;61.35
47366;BME280;33105;47.964;7.982;2023-04-05T06:49:37;97015.16;;;0.23;61.27
47366;BME280;33105;47.964;7.982;2023-04-05T06:52:38;97006.19;;;0.37;61.16
47366;BME280;33105;47.964;7.982;2023-04-05T06:55:39;97001.81;;;0.79;60.01
47366;BME280;33105;47.964;7.982;2023-04-05T06:58:42;97000.31;;;0.76;60.94
47366;BME280;33105;47.964;7.982;2023-04-05T07:01:44;97001.09;;;1.19;59.47
47366;BME280;33105;47.964;7.982;2023-04-05T07:04:45;96993.66;;;1.28;59.32
47366;BME280;33105;47.964;7.982;2023-04-05T07:07:46;96999.09;;;1.34;58.80
47366;BME280;33105;47.964;7.982;2023-04-05T07:10:49;97002.28;;;1.51;57.79
47366;BME280;33105;47.964;7.982;2023-04-05T07:13:50;96992.00;;;1.61;56.28
47366;BME280;33105;47.964;7.982;2023-04-05T07:16:52;96995.66;;;1.47;57.00
47366;BME280;33105;47.964;7.982;2023-04-05T07:19:53;96992.44;;;1.65;56.53
47366;BME280;33105;47.964;7.982;2023-04-05T07:22:54;96999.28;;;1.67;56.21
47366;BME280;33105;47.964;7.982;2023-04-05T07:26:00;97005.09;;;1.78;55.80
47366;BME280;33105;47.964;7.982;2023-04-05T07:29:04;96999.03;;;2.17;56.04
47366;BME280;33105;47.964;7.982;2023-04-05T07:32:07;97005.06;;;2.19;54.12
47366;BME280;33105;47.964;7.982;2023-04-05T07:35:08;97000.53;;;2.32;52.09
47366;BME280;33105;47.964;7.982;2023-04-05T07:38:09;97003.00;;;2.34;51.09
47366;BME280;33105;47.964;7.982;2023-04-05T07:41:11;96995.59;;;2.62;52.58
47366;BME280;33105;47.964;7.982;2023-04-05T07:44:28;96998.09;;;2.97;49.69
47366;BME280;33105;47.964;7.982;2023-04-05T07:47:37;96997.03;;;3.18;47.49
47366;BME280;33105;47.964;7.982;2023-04-05T07:50:41;96994.09;;;3.39;48.81
47366;BME280;33105;47.964;7.982;2023-04-05T07:53:47;97003.06;;;3.06;48.53
47366;BME280;33105;47.964;7.982;2023-04-05T07:56:50;97006.34;;;3.41;49.11
47366;BME280;33105;47.964;7.982;2023-04-05T07:59:52;97000.28;;;3.53;46.08
47366;BME280;33105;47.964;7.982;2023-04-05T08:02:54;97000.25;;;3.66;45.79
47366;BME280;33105;47.964;7.982;2023-04-05T08:05:56;96996.09;;;3.70;46.59
47366;BME280;33105;47.964;7.982;2023-04-05T08:08:57;96999.41;;;3.72;46.51
47366;BME280;33105;47.964;7.982;2023-04-05T08:11:59;96989.81;;;3.76;46.29
47366;BME280;33105;47.964;7.982;2023-04-05T08:15:02;96990.25;;;3.73;46.26
47366;BME280;33105;47.964;7.982;2023-04-05T08:18:04;96990.72;;;3.63;46.28
47366;BME280;33105;47.964;7.982;2023-04-05T08:21:05;96994.19;;;3.77;47.22
47366;BME280;33105;47.964;7.982;2023-04-05T08:24:06;96989.69;;;3.58;47.33
47366;BME280;33105;47.964;7.982;2023-04-05T08:27:07;96989.91;;;3.56;46.91
47366;BME280;33105;47.964;7.982;2023-04-05T08:30:09;96984.06;;;3.66;44.60
47366;BME280;33105;47.964;7.982;2023-04-05T08:33:11;96980.88;;;3.82;45.53
47366;BME280;33105;47.964;7.982;2023-04-05T08:36:12;96978.63;;;4.17;44.07
47366;BME280;33105;47.964;7.982;2023-04-05T08:39:13;96978.03;;;4.15;45.19
47366;BME280;33105;47.964;7.982;2023-04-05T08:42:17;96977.81;;;4.17;43.32
47366;BME280;33105;47.964;7.982;2023-04-05T08:45:19;96974.50;;;4.46;44.09
47366;BME280;33105;47.964;7.982;2023-04-05T08:48:21;96976.94;;;4.86;44.73
47366;BME280;33105;47.964;7.982;2023-04-05T08:51:24;96973.75;;;5.38;42.83
47366;BME280;33105;47.964;7.982;2023-04-05T08:54:26;96977.75;;;5.11;43.87
47366;BME280;33105;47.964;7.982;2023-04-05T08:57:28;96981.81;;;5.20;43.05
47366;BME280;33105;47.964;7.982;2023-04-05T09:00:31;96985.34;;;4.71;40.78
47366;BME280;33105;47.964;7.982;2023-04-05T09:03:36;96975.84;;;4.93;41.04
47366;BME280;33105;47.964;7.982;2023-04-05T09:06:37;96988.25;;;5.01;43.09
47366;BME280;33105;47.964;7.982;2023-04-05T09:09:41;96979.41;;;5.12;42.52
47366;BME280;33105;47.964;7.982;2023-04-05T09:12:44;96984.50;;;5.02;42.27
47366;BME280;33105;47.964;7.982;2023-04-05T09:15:45;96973.41;;;5.28;41.44
47366;BME280;33105;47.964;7.982;2023-04-05T09:18:47;96971.25;;;5.37;43.33
47366;BME280;33105;47.964;7.982;2023-04-05T09:21:59;96968.88;;;5.65;40.51
47366;BME280;33105;47.964;7.982;2023-04-05T09:25:00;96967.13;;;5.71;40.09
47366;BME280;33105;47.964;7.982;2023-04-05T09:28:02;96967.88;;;5.60;39.14
47366;BME280;33105;47.964;7.982;2023-04-05T09:31:03;96963.53;;;6.13;38.62
47366;BME280;33105;47.964;7.982;2023-04-05T09:34:04;96968.38;;;6.23;38.05
47366;BME280;33105;47.964;7.982;2023-04-05T09:37:19;96966.03;;;6.57;39.24
47366;BME280;33105;47.964;7.982;2023-04-05T09:40:22;96962.84;;;6.18;39.02
47366;BME280;33105;47.964;7.982;2023-04-05T09:43:41;96955.09;;;6.33;39.02
47366;BME280;33105;47.964;7.982;2023-04-05T09:46:42;96951.50;;;6.93;41.51
47366;BME280;33105;47.964;7.982;2023-04-05T09:49:44;96955.75;;;7.24;38.80
47366;BME280;33105;47.964;7.982;2023-04-05T09:52:46;96947.81;;;7.45;36.79
47366;BME280;33105;47.964;7.982;2023-04-05T09:55:49;96951.59;;;7.21;39.36
47366;BME280;33105;47.964;7.982;2023-04-05T09:58:51;96953.03;;;7.12;40.80
47366;BME280;33105;47.964;7.982;2023-04-05T10:01:52;96948.03;;;6.86;38.65
47366;BME280;33105;47.964;7.982;2023-04-05T10:04:53;96945.53;;;6.72;39.74
47366;BME280;33105;47.964;7.982;2023-04-05T10:07:55;96945.06;;;6.64;38.68
47366;BME280;33105;47.964;7.982;2023-04-05T10:10:57;96953.53;;;6.56;42.04
47366;BME280;33105;47.964;7.982;2023-04-05T10:14:00;96949.06;;;6.73;41.33
47366;BME280;33105;47.964;7.982;2023-04-05T10:17:08;96946.75;;;6.88;40.14
47366;BME280;33105;47.964;7.982;2023-04-05T10:20:22;96946.84;;;6.81;40.34
47366;BME280;33105;47.964;7.982;2023-04-05T10:23:27;96944.88;;;6.89;40.69
47366;BME280;33105;47.964;7.982;2023-04-05T10:27:03;96944.88;;;7.35;43.24
47366;BME280;33105;47.964;7.982;2023-04-05T10:30:06;96946.19;;;7.09;43.90
47366;BME280;33105;47.964;7.982;2023-04-05T10:33:34;96956.34;;;7.14;43.52
47366;BME280;33105;47.964;7.982;2023-04-05T10:36:53;96941.22;;;7.41;41.71
47366;BME280;33105;47.964;7.982;2023-04-05T10:39:58;96946.91;;;7.16;42.08
47366;BME280;33105;47.964;7.982;2023-04-05T10:43:03;96942.75;;;7.26;41.31
47366;BME280;33105;47.964;7.982;2023-04-05T10:46:07;96954.00;;;7.41;43.75
47366;BME280;33105;47.964;7.982;2023-04-05T10:49:32;96956.81;;;7.23;42.53
47366;BME280;33105;47.964;7.982;2023-04-05T10:52:35;96948.41;;;6.89;42.15
47366;BME280;33105;47.964;7.982;2023-04-05T10:55:37;96950.66;;;7.04;43.90
47366;BME280;33105;47.964;7.982;2023-04-05T10:58:40;96938.84;;;6.87;43.58
47366;BME280;33105;47.964;7.982;2023-04-05T11:01:42;96946.38;;;6.85;42.92
47366;BME280;33105;47.964;7.982;2023-04-05T11:04:45;96936.59;;;6.95;44.62
47366;BME280;33105;47.964;7.982;2023-04-05T11:07:46;96939.44;;;7.35;43.74
47366;BME280;33105;47.964;7.982;2023-04-05T11:10:51;96932.47;;;7.63;42.86
47366;BME280;33105;47.964;7.982;2023-04-05T11:13:54;96931.25;;;7.70;43.85
47366;BME280;33105;47.964;7.982;2023-04-05T11:16:55;96920.28;;;7.65;41.65
47366;BME280;33105;47.964;7.982;2023-04-05T11:20:03;96933.75;;;7.48;41.11
47366;BME280;33105;47.964;7.982;2023-04-05T11:23:05;96912.38;;;7.92;39.66
47366;BME280;33105;47.964;7.982;2023-04-05T11:26:06;96915.16;;;7.69;42.89
47366;BME280;33105;47.964;7.982;2023-04-05T11:29:08;96921.94;;;7.66;44.69
47366;BME280;33105;47.964;7.982;2023-04-05T11:32:11;96923.97;;;7.36;41.58
47366;BME280;33105;47.964;7.982;2023-04-05T11:35:14;96910.69;;;7.63;42.56
47366;BME280;33105;47.964;7.982;2023-04-05T11:38:21;96904.81;;;8.23;44.88
47366;BME280;33105;47.964;7.982;2023-04-05T11:41:24;96907.22;;;7.91;40.38
47366;BME280;33105;47.964;7.982;2023-04-05T11:44:42;96908.56;;;7.65;40.65
47366;BME280;33105;47.964;7.982;2023-04-05T11:47:44;96910.00;;;7.44;43.18
47366;BME280;33105;47.964;7.982;2023-04-05T11:50:46;96897.69;;;8.05;42.37
47366;BME280;33105;47.964;7.982;2023-04-05T11:53:47;96897.22;;;8.36;41.12
47366;BME280;33105;47.964;7.982;2023-04-05T11:56:51;96895.72;;;8.91;39.51
47366;BME280;33105;47.964;7.982;2023-04-05T11:59:52;96898.81;;;8.49;39.66
47366;BME280;33105;47.964;7.982;2023-04-05T12:02:57;96895.09;;;8.27;40.14
47366;BME280;33105;47.964;7.982;2023-04-05T12:05:59;96890.66;;;8.99;43.02
47366;BME280;33105;47.964;7.982;2023-04-05T12:09:06;96883.91;;;9.40;42.35
47366;BME280;33105;47.964;7.982;2023-04-05T12:12:15;96886.13;;;9.43;44.87
47366;BME280;33105;47.964;7.982;2023-04-05T12:15:16;96880.66;;;9.60;41.50
47366;BME280;33105;47.964;7.982;2023-04-05T12:18:18;96881.16;;;9.02;43.33
47366;BME280;33105;47.964;7.982;2023-04-05T12:21:20;96874.84;;;9.35;41.16
47366;BME280;33105;47.964;7.982;2023-04-05T12:24:21;96876.81;;;9.39;43.17
47366;BME280;33105;47.964;7.982;2023-04-05T12:27:23;96875.88;;;9.50;41.17
47366;BME280;33105;47.964;7.982;2023-04-05T12:30:26;96864.47;;;9.53;41.42
47366;BME280;33105;47.964;7.982;2023-04-05T12:33:32;96869.81;;;9.27;41.35
47366;BME280;33105;47.964;7.982;2023-04-05T12:36:36;96864.28;;;9.38;40.75
47366;BME280;33105;47.964;7.982;2023-04-05T12:39:38;96870.78;;;9.37;41.89
47366;BME280;33105;47.964;7.982;2023-04-05T12:42:40;96877.44;;;9.46;42.04
47366;BME280;33105;47.964;7.982;2023-04-05T12:45:41;96869.03;;;9.70;44.13
47366;BME280;33105;47.964;7.982;2023-04-05T12:48:49;96861.66;;;9.92;40.61
47366;BME280;33105;47.964;7.982;2023-04-05T12:51:51;96856.34;;;9.59;40.06
47366;BME280;33105;47.964;7.982;2023-04-05T12:54:53;96854.47;;;9.42;40.08
47366;BME280;33105;47.964;7.982;2023-04-05T12:57:59;96855.69;;;9.30;42.98
47366;BME280;33105;47.964;7.982;2023-04-05T13:01:02;96847.16;;;9.65;41.51
47366;BME280;33105;47.964;7.982;2023-04-05T13:04:03;96846.03;;;9.22;40.28
47366;BME280;33105;47.964;7.982;2023-04-05T13:07:05;96847.97;;;9.65;43.10
47366;BME280;33105;47.964;7.982;2023-04-05T13:10:07;96845.81;;;9.89;40.24
47366;BME280;33105;47.964;7.982;2023-04-05T13:13:09;96841.66;;;10.08;39.18
47366;BME280;33105;47.964;7.982;2023-04-05T13:16:10;96843.81;;;10.06;40.77
47366;BME280;33105;47.964;7.982;2023-04-05T13:19:11;96845.63;;;9.52;41.75
47366;BME280;33105;47.964;7.982;2023-04-05T13:22:12;96836.69;;;9.78;40.70
47366;BME280;33105;47.964;7.982;2023-04-05T13:25:14;96840.06;;;9.64;41.34
47366;BME280;33105;47.964;7.982;2023-04-05T13:28:15;96845.31;;;9.48;40.33
47366;BME280;33105;47.964;7.982;2023-04-05T13:31:16;96835.28;;;9.54;39.83
47366;BME280;33105;47.964;7.982;2023-04-05T13:34:18;96838.88;;;10.03;42.54
47366;BME280;33105;47.964;7.982;2023-04-05T13:37:19;96836.81;;;10.42;41.48
47366;BME280;33105;47.964;7.982;2023-04-05T13:40:20;96834.91;;;10.38;40.57
47366;BME280;33105;47.964;7.982;2023-04-05T13:43:22;96830.06;;;10.50;39.51
47366;BME280;33105;47.964;7.982;2023-04-05T13:46:23;96831.50;;;10.26;40.52
47366;BME280;33105;47.964;7.982;2023-04-05T13:49:27;96823.69;;;10.12;39.56
47366;BME280;33105;47.964;7.982;2023-04-05T13:52:28;96827.94;;;10.03;39.35
47366;BME280;33105;47.964;7.982;2023-04-05T13:55:30;96819.38;;;9.95;39.82
47366;BME280;33105;47.964;7.982;2023-04-05T13:58:31;96821.03;;;9.96;40.62
47366;BME280;33105;47.964;7.982;2023-04-05T14:01:33;96820.91;;;10.07;40.76
47366;BME280;33105;47.964;7.982;2023-04-05T14:04:34;96828.56;;;9.83;39.11
47366;BME280;33105;47.964;7.982;2023-04-05T14:07:36;96829.03;;;10.02;40.74
47366;BME280;33105;47.964;7.982;2023-04-05T14:10:37;96824.81;;;9.68;38.67
47366;BME280;33105;47.964;7.982;2023-04-05T14:13:39;96820.16;;;10.39;40.23
47366;BME280;33105;47.964;7.982;2023-04-05T14:16:40;96819.06;;;10.40;39.72
47366;BME280;33105;47.964;7.982;2023-04-05T14:19:41;96820.09;;;10.34;40.25
47366;BME280;33105;47.964;7.982;2023-04-05T14:22:43;96819.06;;;10.72;39.90
47366;BME280;33105;47.964;7.982;2023-04-05T14:25:44;96817.75;;;10.47;40.34
47366;BME280;33105;47.964;7.982;2023-04-05T14:28:45;96810.56;;;10.68;39.58
47366;BME280;33105;47.964;7.982;2023-04-05T14:31:47;96813.91;;;10.75;40.00
47366;BME280;33105;47.964;7.982;2023-04-05T14:34:48;96815.47;;;10.66;38.16
47366;BME280;33105;47.964;7.982;2023-04-05T14:37:50;96817.00;;;10.52;39.16
47366;BME280;33105;47.964;7.982;2023-04-05T14:40:51;96817.00;;;10.52;38.06
47366;BME280;33105;47.964;7.982;2023-04-05T14:43:53;96816.94;;;10.47;38.65
47366;BME280;33105;47.964;7.982;2023-04-05T14:46:55;96811.09;;;10.33;39.78
47366;BME280;33105;47.964;7.982;2023-04-05T14:49:56;96799.03;;;10.61;38.78
47366;BME280;33105;47.964;7.982;2023-04-05T14:52:58;96799.09;;;10.34;38.19
47366;BME280;33105;47.964;7.982;2023-04-05T14:56:00;96793.13;;;10.42;40.48
47366;BME280;33105;47.964;7.982;2023-04-05T14:59:01;96786.84;;;10.42;40.91
47366;BME280;33105;47.964;7.982;2023-04-05T15:02:03;96788.47;;;10.38;38.98
47366;BME280;33105;47.964;7.982;2023-04-05T15:05:04;96784.41;;;10.77;37.55
47366;BME280;33105;47.964;7.982;2023-04-05T15:08:06;96791.13;;;10.65;38.30
47366;BME280;33105;47.964;7.982;2023-04-05T15:11:07;96789.00;;;10.35;38.93
47366;BME280;33105;47.964;7.982;2023-04-05T15:14:08;96790.66;;;10.41;38.83
47366;BME280;33105;47.964;7.982;2023-04-05T15:17:10;96785.91;;;10.26;41.39
47366;BME280;33105;47.964;7.982;2023-04-05T15:20:12;96793.03;;;9.78;39.27
47366;BME280;33105;47.964;7.982;2023-04-05T15:23:13;96784.16;;;9.66;39.54
47366;BME280;33105;47.964;7.982;2023-04-05T15:26:14;96782.81;;;9.69;40.47
47366;BME280;33105;47.964;7.982;2023-04-05T15:29:15;96776.75;;;9.62;39.61
47366;BME280;33105;47.964;7.982;2023-04-05T15:32:17;96779.75;;;9.38;40.33
47366;BME280;33105;47.964;7.982;2023-04-05T15:35:18;96791.16;;;9.13;39.50
47366;BME280;33105;47.964;7.982;2023-04-05T15:38:19;96783.09;;;9.45;40.53
47366;BME280;33105;47.964;7.982;2023-04-05T15:41:20;96785.69;;;9.35;39.99
47366;BME280;33105;47.964;7.982;2023-04-05T15:44:21;96782.75;;;9.42;38.35
47366;BME280;33105;47.964;7.982;2023-04-05T15:47:22;96795.00;;;9.17;40.50
47366;BME280;33105;47.964;7.982;2023-04-05T15:50:24;96781.56;;;9.54;38.71
47366;BME280;33105;47.964;7.982;2023-04-05T15:53:25;96800.91;;;9.09;40.78
47366;BME280;33105;47.964;7.982;2023-04-05T15:56:26;96793.47;;;9.05;40.74
47366;BME280;33105;47.964;7.982;2023-04-05T15:59:27;96786.22;;;8.94;40.97
47366;BME280;33105;47.964;7.982;2023-04-05T16:02:29;96786.59;;;8.80;41.53
47366;BME280;33105;47.964;7.982;2023-04-05T16:05:31;96782.19;;;8.79;42.64
47366;BME280;33105;47.964;7.982;2023-04-05T16:08:32;96788.06;;;8.71;41.12
47366;BME280;33105;47.964;7.982;2023-04-05T16:11:34;96786.78;;;8.57;40.51
47366;BME280;33105;47.964;7.982;2023-04-05T16:14:35;96786.84;;;8.62;39.40
47366;BME280;33105;47.964;7.982;2023-04-05T16:17:37;96786.44;;;8.37;40.10
47366;BME280;33105;47.964;7.982;2023-04-05T16:20:39;96774.38;;;8.66;39.97
47366;BME280;33105;47.964;7.982;2023-04-05T16:23:42;96784.69;;;8.47;40.55
47366;BME280;33105;47.964;7.982;2023-04-05T16:26:45;96781.84;;;8.37;41.81
47366;BME280;33105;47.964;7.982;2023-04-05T16:29:46;96777.03;;;8.44;40.53
47366;BME280;33105;47.964;7.982;2023-04-05T16:32:51;96788.59;;;8.35;41.55